Time;durP1;ratioP1;P1;durP2;ratioP2;P2;SDS_P1;SDS_P2;PMS_P1;PMS_P2;Temp;Humidity;BMP_temperature;BMP_pressure;BME280_temperature;BME280_humidity;BME280_pressure;Samples;Min_cycle;Max_cycle;Signal;HPM_P1;HPM_P2
2024/02/09 00:00:24;;;;;;;10.25;2.83;;;;;12.80;96256.00;;;;5052003;28;20114;-63
2024/02/09 00:02:52;;;;;;;6.80;2.70;;;;;12.80;96252.00;;;;5052190;28;20478;-63
2024/02/09 00:05:19;;;;;;;9.68;2.53;;;;;12.80;96254.00;;;;5050005;28;20041;-63
2024/02/09 00:07:48;;;;;;;10.20;2.85;;;;;12.80;96248.00;;;;5051945;28;20051;-62
2024/02/09 00:10:20;;;;;;;7.28;2.80;;;;;12.80;96242.00;;;;5034411;28;20156;-62
2024/02/09 00:12:48;;;;;;;3.85;2.03;;;;;12.70;96239.00;;;;5050638;28;20140;-63
2024/02/09 00:15:18;;;;;;;8.05;2.63;;;;;12.60;96230.00;;;;5051984;28;20486;-62
2024/02/09 00:17:45;;;;;;;6.50;2.53;;;;;12.60;96246.00;;;;5052404;28;20499;-62
2024/02/09 00:20:13;;;;;;;4.93;2.10;;;;;12.60;96240.00;;;;5052350;28;20037;-63
2024/02/09 00:22:40;;;;;;;5.53;2.00;;;;;12.60;96239.00;;;;5051997;28;20056;-62
2024/02/09 00:25:11;;;;;;;8.15;2.38;;;;;12.60;96245.00;;;;5050572;28;20436;-62
2024/02/09 00:27:38;;;;;;;6.30;2.00;;;;;12.50;96243.00;;;;5052803;28;20041;-62
2024/02/09 00:30:07;;;;;;;7.03;2.17;;;;;12.50;96240.00;;;;5053293;28;20421;-62
2024/02/09 00:32:34;;;;;;;6.53;2.30;;;;;12.40;96237.00;;;;5053168;28;20107;-62
2024/02/09 00:35:02;;;;;;;6.53;2.30;;;;;12.40;96240.00;;;;5055221;28;20083;-62
2024/02/09 00:37:29;;;;;;;8.23;2.20;;;;;12.30;96245.00;;;;5057251;28;20045;-62
2024/02/09 00:39:56;;;;;;;7.47;2.38;;;;;12.30;96245.00;;;;5057121;28;20091;-63
2024/02/09 00:42:23;;;;;;;6.32;2.40;;;;;12.20;96247.00;;;;5056793;28;20445;-63
2024/02/09 00:44:50;;;;;;;9.15;3.10;;;;;12.20;96243.00;;;;5056197;28;20072;-63
2024/02/09 00:47:17;;;;;;;4.88;2.08;;;;;12.20;96240.00;;;;5056739;28;20041;-61
2024/02/09 00:49:45;;;;;;;8.18;2.47;;;;;12.10;96242.00;;;;5056788;28;20124;-63
2024/02/09 00:52:14;;;;;;;7.22;3.30;;;;;12.10;96236.00;;;;5056795;28;20417;-61
2024/02/09 00:54:41;;;;;;;9.35;3.17;;;;;12.00;96232.00;;;;5055895;28;20055;-60
2024/02/09 00:57:08;;;;;;;9.07;3.72;;;;;12.00;96237.00;;;;5055818;28;20517;-62
2024/02/09 00:59:38;;;;;;;6.13;2.25;;;;;12.00;96234.00;;;;5055517;28;20037;-60
2024/02/09 01:02:09;;;;;;;8.15;2.40;;;;;12.00;96222.00;;;;5055465;28;20052;-61
2024/02/09 01:04:36;;;;;;;4.32;2.13;;;;;12.00;96221.00;;;;5037209;28;20045;-62
2024/02/09 01:07:04;;;;;;;7.47;2.85;;;;;11.90;96220.00;;;;5055437;28;20123;-61
2024/02/09 01:09:33;;;;;;;4.35;1.90;;;;;11.90;96212.00;;;;5055581;28;20041;-62
2024/02/09 02:45:13;;;;;;;2.10;1.38;;;;;11.50;96108.00;;;;5053116;28;20045;-63
2024/02/09 02:47:40;;;;;;;4.57;1.50;;;;;11.50;96103.00;;;;5053507;28;20045;-63
2024/02/09 03:06:38;;;;;;;2.83;1.27;;;;;11.50;96088.00;;;;5053126;28;20052;-61
2024/02/09 03:09:25;;;;;;;2.38;1.58;;;;;11.50;96078.00;;;;5053075;28;20456;-61
2024/02/09 03:11:51;;;;;;;3.75;1.10;;;;;11.50;96075.00;;;;5052986;28;20049;-62
2024/02/09 03:14:18;;;;;;;7.30;1.88;;;;;11.50;96072.00;;;;5052246;28;20041;-62
2024/02/09 03:16:45;;;;;;;6.57;2.03;;;;;11.40;96076.00;;;;5053015;28;20041;-62
2024/02/09 03:19:15;;;;;;;3.15;1.58;;;;;11.40;96054.00;;;;5053011;28;20040;-62
2024/02/09 03:21:42;;;;;;;2.47;1.40;;;;;11.40;96069.00;;;;5052885;28;20037;-62
2024/02/09 03:24:09;;;;;;;2.55;1.67;;;;;11.40;96077.00;;;;5051014;28;20068;-61
2024/02/09 03:26:35;;;;;;;2.65;1.40;;;;;11.40;96069.00;;;;5052643;28;20045;-61
2024/02/09 03:29:02;;;;;;;7.03;1.90;;;;;11.40;96070.00;;;;5052727;28;20084;-62
2024/02/09 03:31:31;;;;;;;6.22;1.40;;;;;11.50;96071.00;;;;5051455;28;20076;-62
2024/02/09 03:33:58;;;;;;;4.22;1.60;;;;;11.50;96070.00;;;;5052123;28;20037;-62
2024/02/09 03:36:25;;;;;;;5.35;1.75;;;;;11.50;96073.00;;;;5052566;28;20064;-62
2024/02/09 03:38:53;;;;;;;3.35;1.55;;;;;11.50;96071.00;;;;5051346;28;20110;-62
2024/02/09 03:41:20;;;;;;;2.08;1.25;;;;;11.50;96072.00;;;;5051307;28;20048;-62
2024/02/09 03:43:47;;;;;;;4.00;1.55;;;;;11.50;96079.00;;;;5050571;28;20045;-62
2024/02/09 03:46:16;;;;;;;2.95;1.40;;;;;11.50;96074.00;;;;5051249;28;20077;-62
2024/02/09 03:48:42;;;;;;;9.85;1.92;;;;;11.50;96072.00;;;;5052386;28;20049;-62
2024/02/09 03:51:09;;;;;;;4.85;1.55;;;;;11.50;96068.00;;;;5052424;28;20391;-62
2024/02/09 03:53:36;;;;;;;4.63;1.50;;;;;11.60;96065.00;;;;5050526;28;20504;-62
2024/02/09 03:56:02;;;;;;;5.40;1.98;;;;;11.60;96057.00;;;;5052345;28;20036;-62
2024/02/09 03:58:29;;;;;;;5.28;1.70;;;;;11.60;96060.00;;;;5051112;28;20043;-62
2024/02/09 04:00:57;;;;;;;3.45;2.00;;;;;11.60;96054.00;;;;5052248;28;20048;-62
2024/02/09 04:03:23;;;;;;;3.83;2.00;;;;;11.60;96051.00;;;;5051846;28;20045;-62
2024/02/09 04:05:50;;;;;;;5.07;1.85;;;;;11.60;96044.00;;;;5052091;28;20453;-61
2024/02/09 04:08:18;;;;;;;6.05;2.05;;;;;11.60;96043.00;;;;5051973;28;20516;-62
2024/02/09 04:10:45;;;;;;;6.65;2.10;;;;;11.60;96057.00;;;;5052101;28;20581;-62
2024/02/09 04:13:12;;;;;;;4.15;2.10;;;;;11.60;96051.00;;;;5051905;28;20047;-62
2024/02/09 04:15:40;;;;;;;5.63;2.17;;;;;11.60;96052.00;;;;5051552;28;20087;-62
2024/02/09 04:18:07;;;;;;;8.15;2.10;;;;;11.70;96063.00;;;;5052128;28;20476;-61
2024/02/09 04:20:37;;;;;;;5.20;2.33;;;;;11.70;96056.00;;;;5050663;28;20088;-62
2024/02/09 04:23:04;;;;;;;4.30;2.05;;;;;11.70;96066.00;;;;5051979;28;20494;-62
2024/02/09 04:25:31;;;;;;;5.15;2.17;;;;;11.70;96063.00;;;;5051464;28;20394;-62
2024/02/09 04:28:00;;;;;;;6.78;2.55;;;;;11.70;96054.00;;;;5051984;28;20049;-62
2024/02/09 04:30:26;;;;;;;7.50;2.88;;;;;11.70;96060.00;;;;5051859;28;20565;-62
2024/02/09 04:32:53;;;;;;;6.85;2.83;;;;;11.70;96047.00;;;;5051973;28;20045;-62
2024/02/09 04:35:24;;;;;;;8.82;3.08;;;;;11.70;96046.00;;;;5051275;28;20559;-62
2024/02/09 04:37:52;;;;;;;6.95;3.17;;;;;11.70;96051.00;;;;5051795;28;20580;-63
2024/02/09 04:40:21;;;;;;;10.02;3.80;;;;;11.80;96047.00;;;;5051851;28;20043;-62
2024/02/09 04:42:48;;;;;;;9.13;3.95;;;;;11.80;96046.00;;;;5051739;28;20134;-62
2024/02/09 04:45:14;;;;;;;9.32;4.07;;;;;11.80;96063.00;;;;5051398;28;20049;-62
2024/02/09 04:47:41;;;;;;;8.43;4.38;;;;;11.80;96043.00;;;;5051703;28;20041;-63
2024/02/09 04:50:08;;;;;;;8.23;4.10;;;;;11.80;96049.00;;;;5051819;28;20090;-62
2024/02/09 04:52:35;;;;;;;8.07;4.97;;;;;11.80;96049.00;;;;5051655;28;20127;-62
2024/02/09 04:55:02;;;;;;;9.52;4.35;;;;;11.80;96041.00;;;;5051124;28;20131;-62
2024/02/09 04:57:29;;;;;;;8.02;4.75;;;;;11.80;96031.00;;;;5051596;28;20053;-63
2024/02/09 04:59:56;;;;;;;7.03;4.30;;;;;11.80;96047.00;;;;5052009;28;20103;-62
2024/02/09 05:02:22;;;;;;;6.80;4.35;;;;;11.80;96037.00;;;;5051634;28;20045;-62
2024/02/09 05:04:49;;;;;;;8.23;4.78;;;;;11.80;96033.00;;;;5051523;28;20040;-62
2024/02/09 05:07:16;;;;;;;8.07;4.72;;;;;11.80;96027.00;;;;5051703;28;20076;-62
2024/02/09 05:09:42;;;;;;;11.00;5.38;;;;;11.80;96023.00;;;;5051600;28;20575;-61
2024/02/09 05:12:09;;;;;;;16.60;5.57;;;;;11.80;96013.00;;;;5051701;28;20049;-62
2024/02/09 05:14:36;;;;;;;8.43;4.65;;;;;11.90;96005.00;;;;5051138;28;20045;-61
2024/02/09 05:17:02;;;;;;;8.85;5.00;;;;;11.90;96007.00;;;;5051498;28;20049;-62
2024/02/09 05:19:30;;;;;;;8.18;5.28;;;;;11.80;95999.00;;;;5051718;28;20049;-62
2024/02/09 05:21:57;;;;;;;12.68;5.93;;;;;11.80;96002.00;;;;5055197;28;20331;-62
2024/02/09 05:24:26;;;;;;;10.60;4.88;;;;;11.80;95996.00;;;;5054795;28;20153;-62
2024/02/09 05:26:53;;;;;;;9.73;5.53;;;;;11.80;95994.00;;;;5054982;28;20049;-62
2024/02/09 05:29:19;;;;;;;11.18;6.00;;;;;11.80;96006.00;;;;5053679;28;20045;-62
2024/02/09 05:31:46;;;;;;;10.32;5.53;;;;;11.80;95999.00;;;;5037155;28;20417;-62
2024/02/09 05:34:12;;;;;;;12.32;6.50;;;;;11.80;95996.00;;;;5054364;28;20048;-62
2024/02/09 05:36:39;;;;;;;8.73;5.68;;;;;11.80;96001.00;;;;5055029;28;20479;-62
2024/02/09 05:39:07;;;;;;;9.13;5.60;;;;;11.80;96004.00;;;;5054955;28;20067;-62
2024/02/09 05:41:33;;;;;;;9.85;5.57;;;;;11.90;95996.00;;;;5054912;28;20060;-62
2024/02/09 05:44:00;;;;;;;11.77;6.13;;;;;11.80;96001.00;;;;5054175;28;20059;-62
2024/02/09 05:46:26;;;;;;;9.00;5.88;;;;;11.90;96000.00;;;;5054889;28;20040;-62
2024/02/09 05:48:55;;;;;;;14.98;5.95;;;;;11.90;95999.00;;;;5053797;28;20103;-63
2024/02/09 05:51:23;;;;;;;15.05;6.13;;;;;11.90;96013.00;;;;5055249;28;20048;-65
2024/02/09 05:53:50;;;;;;;11.80;5.40;;;;;11.90;96007.00;;;;5053264;28;20067;-61
2024/02/09 05:56:27;;;;;;;9.13;5.65;;;;;12.00;96012.00;;;;5054733;28;20040;-62
2024/02/09 05:58:57;;;;;;;11.20;5.90;;;;;11.90;96013.00;;;;5036793;28;20469;-63
2024/02/09 06:01:31;;;;;;;13.23;5.68;;;;;11.90;96009.00;;;;5053530;28;20041;-62
2024/02/09 06:03:58;;;;;;;10.40;5.65;;;;;11.90;96011.00;;;;5036247;28;20052;-62
2024/02/09 06:06:26;;;;;;;9.00;5.43;;;;;11.90;96006.00;;;;5054711;28;20072;-62
2024/02/09 06:08:52;;;;;;;10.27;4.88;;;;;11.90;96001.00;;;;5053972;28;20094;-62
2024/02/09 06:11:19;;;;;;;10.52;6.32;;;;;12.00;96002.00;;;;5054740;28;20044;-62
2024/02/09 06:13:46;;;;;;;12.60;5.95;;;;;12.00;95994.00;;;;5053046;28;20049;-62
2024/02/09 06:16:20;;;;;;;9.20;5.00;;;;;12.00;96007.00;;;;5053622;28;20114;-62
2024/02/09 06:18:49;;;;;;;12.52;5.85;;;;;11.90;95991.00;;;;5053366;28;20391;-61
2024/02/09 06:21:16;;;;;;;9.10;5.68;;;;;12.00;96000.00;;;;5054442;28;20102;-60
2024/02/09 06:23:45;;;;;;;13.65;5.97;;;;;12.00;96002.00;;;;5053971;28;20103;-61
2024/02/09 06:26:16;;;;;;;10.35;4.82;;;;;12.00;96000.00;;;;5054500;28;20098;-60
2024/02/09 06:28:46;;;;;;;8.98;5.07;;;;;12.00;96000.00;;;;5054917;28;20136;-62
2024/02/09 06:31:23;;;;;;;11.18;4.90;;;;;12.00;95991.00;;;;5052055;28;20045;-62
2024/02/09 06:33:54;;;;;;;13.85;5.15;;;;;12.00;95989.00;;;;5053827;28;20045;-62
2024/02/09 06:36:21;;;;;;;13.70;5.93;;;;;12.00;95986.00;;;;5054454;28;20049;-62
2024/02/09 06:38:49;;;;;;;12.10;4.90;;;;;12.00;96000.00;;;;5053174;28;20044;-62
2024/02/09 06:41:16;;;;;;;10.88;5.35;;;;;12.00;95994.00;;;;5054001;28;20044;-62
2024/02/09 06:43:42;;;;;;;12.30;5.82;;;;;12.00;95998.00;;;;5053515;28;20053;-61
2024/02/09 06:46:10;;;;;;;9.77;5.25;;;;;12.00;95986.00;;;;5052907;28;20123;-62
2024/02/09 06:48:36;;;;;;;11.73;4.90;;;;;12.00;95985.00;;;;5053902;28;20047;-62
2024/02/09 06:51:05;;;;;;;14.25;5.20;;;;;12.00;95982.00;;;;5054168;28;20459;-63
2024/02/09 06:53:32;;;;;;;12.85;6.35;;;;;12.00;95972.00;;;;5053593;28;20119;-62
2024/02/09 06:55:59;;;;;;;15.82;5.82;;;;;12.00;95973.00;;;;5053759;28;20037;-63
2024/02/09 06:58:28;;;;;;;12.60;5.55;;;;;12.00;95977.00;;;;5053678;28;20044;-63
2024/02/09 07:00:55;;;;;;;12.60;5.47;;;;;12.00;95966.00;;;;5053405;28;20045;-62
2024/02/09 07:03:24;;;;;;;13.20;5.10;;;;;12.00;95971.00;;;;5051890;28;20049;-61
2024/02/09 07:05:54;;;;;;;12.23;4.50;;;;;12.00;95976.00;;;;5053655;28;20037;-62
2024/02/09 07:08:30;;;;;;;12.60;5.05;;;;;11.90;95983.00;;;;5053250;28;20047;-62
2024/02/09 07:10:59;;;;;;;9.57;4.47;;;;;11.90;95986.00;;;;5053355;28;20446;-62
2024/02/09 07:13:26;;;;;;;13.80;5.22;;;;;11.90;95983.00;;;;5052534;28;20045;-62
2024/02/09 07:15:52;;;;;;;14.02;5.20;;;;;11.90;95990.00;;;;5053137;28;20041;-61
2024/02/09 07:18:19;;;;;;;12.57;5.05;;;;;12.00;95978.00;;;;5035539;28;20041;-63
2024/02/09 07:20:45;;;;;;;14.00;6.05;;;;;12.00;95990.00;;;;5053195;28;20049;-63
2024/02/09 07:23:12;;;;;;;11.98;4.80;;;;;12.00;95994.00;;;;5051714;28;20391;-63
2024/02/09 07:25:39;;;;;;;12.55;5.00;;;;;12.00;95988.00;;;;5052429;28;20682;-62
2024/02/09 07:28:05;;;;;;;16.33;4.88;;;;;12.10;95993.00;;;;5052853;28;20048;-64
2024/02/09 07:30:32;;;;;;;16.70;4.68;;;;;12.10;95984.00;;;;5052987;28;20098;-62
2024/02/09 07:32:58;;;;;;;12.65;4.40;;;;;12.10;95989.00;;;;5052789;28;20092;-62
2024/02/09 07:35:25;;;;;;;11.93;4.70;;;;;12.10;95987.00;;;;5052242;28;20200;-62
2024/02/09 07:37:52;;;;;;;9.10;4.72;;;;;12.20;95989.00;;;;5052730;28;20069;-62
2024/02/09 07:40:20;;;;;;;12.80;5.18;;;;;12.20;95987.00;;;;5052754;28;20051;-63
2024/02/09 07:42:47;;;;;;;20.48;5.00;;;;;12.30;95984.00;;;;5052128;28;20053;-63
2024/02/09 07:45:16;;;;;;;13.88;4.60;;;;;12.30;95978.00;;;;5052009;28;20457;-62
2024/02/09 07:47:48;;;;;;;12.15;4.30;;;;;12.30;95972.00;;;;5052584;28;20409;-62
2024/02/09 07:50:15;;;;;;;12.23;4.82;;;;;12.30;95975.00;;;;5052407;28;20067;-63
2024/02/09 07:52:42;;;;;;;10.38;4.18;;;;;12.30;95971.00;;;;5052344;28;20051;-62
2024/02/09 07:55:08;;;;;;;12.98;5.22;;;;;12.30;95982.00;;;;5051601;28;20094;-63
2024/02/09 07:57:35;;;;;;;9.55;4.35;;;;;12.30;95974.00;;;;5052307;28;20124;-63
2024/02/09 08:00:08;;;;;;;12.45;4.85;;;;;12.40;95974.00;;;;5052273;28;20047;-63
2024/02/09 08:02:36;;;;;;;13.45;4.15;;;;;12.40;95970.00;;;;5052310;28;20049;-63
2024/02/09 08:05:07;;;;;;;9.02;3.95;;;;;12.40;95975.00;;;;5051927;28;20041;-63
2024/02/09 08:07:37;;;;;;;11.48;3.75;;;;;12.40;95977.00;;;;5052030;28;20048;-62
2024/02/09 08:10:04;;;;;;;15.65;4.80;;;;;12.50;95979.00;;;;5050929;28;20057;-62
2024/02/09 08:12:32;;;;;;;10.57;4.15;;;;;12.50;95975.00;;;;5052143;28;20120;-63
2024/02/09 08:14:59;;;;;;;12.30;3.88;;;;;12.60;95983.00;;;;5051534;28;20041;-63
2024/02/09 08:17:26;;;;;;;11.82;3.83;;;;;12.60;95980.00;;;;5052201;28;20083;-63
2024/02/09 08:19:53;;;;;;;10.25;4.20;;;;;12.70;95979.00;;;;5050825;28;20120;-63
2024/02/09 08:22:22;;;;;;;11.00;3.97;;;;;12.70;95983.00;;;;5051775;28;20044;-63
2024/02/09 08:24:49;;;;;;;12.98;4.10;;;;;12.70;95970.00;;;;5051612;28;20044;-62
2024/02/09 08:27:16;;;;;;;12.48;3.60;;;;;12.70;95955.00;;;;5051918;28;20041;-62
2024/02/09 08:29:42;;;;;;;14.93;4.45;;;;;12.80;95961.00;;;;5050787;28;20391;-63
2024/02/09 08:32:09;;;;;;;9.00;3.45;;;;;13.00;95972.00;;;;5034219;28;20409;-63
2024/02/09 08:34:36;;;;;;;14.82;3.90;;;;;13.10;95979.00;;;;5051838;28;20048;-62
2024/02/09 08:37:03;;;;;;;8.48;3.38;;;;;13.20;95956.00;;;;5051728;28;20048;-63
2024/02/09 08:39:30;;;;;;;9.35;3.60;;;;;13.20;95966.00;;;;5051924;28;20045;-63
2024/02/09 08:41:56;;;;;;;19.90;5.15;;;;;13.30;95979.00;;;;5052198;28;20051;-63
2024/02/09 08:44:23;;;;;;;9.43;4.18;;;;;13.40;95973.00;;;;5050132;28;20421;-63
2024/02/09 08:46:50;;;;;;;8.35;3.42;;;;;13.40;95973.00;;;;5050825;28;20037;-61
2024/02/09 08:49:17;;;;;;;9.50;3.50;;;;;13.40;95962.00;;;;5051825;28;20053;-62
2024/02/09 08:51:44;;;;;;;13.27;3.83;;;;;13.40;95972.00;;;;5050442;28;20057;-62
2024/02/09 08:54:11;;;;;;;11.40;3.40;;;;;13.60;95979.00;;;;5034122;28;20044;-62
2024/02/09 08:56:37;;;;;;;12.68;2.90;;;;;13.60;95978.00;;;;5056368;28;20048;-62
2024/02/09 08:59:06;;;;;;;11.20;3.65;;;;;13.70;95977.00;;;;5058115;28;20488;-62
2024/02/09 09:01:37;;;;;;;8.00;3.22;;;;;13.70;95978.00;;;;5059107;28;20040;-62
2024/02/09 09:04:04;;;;;;;12.43;3.78;;;;;13.70;95977.00;;;;5058304;28;20152;-62
2024/02/09 09:06:32;;;;;;;14.07;3.53;;;;;13.70;95976.00;;;;5057254;28;20047;-63
2024/02/09 09:09:00;;;;;;;7.35;3.40;;;;;13.70;95963.00;;;;5055889;28;20072;-62
2024/02/09 09:11:27;;;;;;;9.77;3.95;;;;;13.90;95959.00;;;;5055305;28;20049;-62
2024/02/09 09:13:53;;;;;;;10.25;3.67;;;;;14.00;95965.00;;;;5054552;28;20079;-62
2024/02/09 09:16:20;;;;;;;11.55;3.78;;;;;14.10;95971.00;;;;5058645;28;20054;-62
2024/02/09 09:18:49;;;;;;;12.18;4.30;;;;;14.20;95972.00;;;;5059972;28;20463;-63
2024/02/09 09:21:16;;;;;;;11.75;4.40;;;;;14.30;95972.00;;;;5056859;28;20045;-63
2024/02/09 09:23:43;;;;;;;8.98;3.75;;;;;14.40;95974.00;;;;5056823;28;20076;-62
2024/02/09 09:26:10;;;;;;;9.23;3.45;;;;;14.50;95985.00;;;;5059858;28;20041;-62
2024/02/09 09:28:51;;;;;;;10.35;3.88;;;;;14.50;95974.00;;;;5061206;28;20044;-62
2024/02/09 09:31:19;;;;;;;12.32;3.40;;;;;14.50;95981.00;;;;5062109;28;20059;-62
2024/02/09 09:33:46;;;;;;;9.93;3.35;;;;;14.50;95979.00;;;;5062547;28;20460;-62
2024/02/09 09:36:13;;;;;;;10.80;3.30;;;;;14.50;95986.00;;;;5060714;28;20045;-62
2024/02/09 09:38:39;;;;;;;14.25;3.67;;;;;14.60;95981.00;;;;5055168;28;20045;-62
2024/02/09 09:41:07;;;;;;;11.68;3.45;;;;;14.50;95979.00;;;;5055064;28;20072;-62
2024/02/09 09:43:34;;;;;;;10.80;3.33;;;;;14.40;95977.00;;;;5054371;28;20047;-62
2024/02/09 09:46:01;;;;;;;9.45;3.83;;;;;14.40;95978.00;;;;5054854;28;20029;-62
2024/02/09 09:48:29;;;;;;;9.55;3.50;;;;;14.50;95979.00;;;;5054890;28;20306;-62
2024/02/09 09:50:56;;;;;;;10.07;3.53;;;;;14.50;95981.00;;;;5054609;28;20441;-61
2024/02/09 09:53:29;;;;;;;9.77;2.95;;;;;14.60;95973.00;;;;5053159;28;20045;-61
2024/02/09 09:55:59;;;;;;;8.25;2.90;;;;;14.60;95984.00;;;;5054468;28;20041;-62
2024/02/09 09:58:27;;;;;;;7.25;3.25;;;;;14.50;95989.00;;;;5053407;28;20049;-62
2024/02/09 10:00:54;;;;;;;12.30;3.83;;;;;14.50;95972.00;;;;5054450;28;20045;-62
2024/02/09 10:03:24;;;;;;;12.20;3.67;;;;;14.50;95983.00;;;;5054313;28;20114;-62
2024/02/09 10:05:51;;;;;;;11.00;3.55;;;;;14.50;95985.00;;;;5053961;28;20126;-62
2024/02/09 10:08:19;;;;;;;10.98;3.45;;;;;14.60;95987.00;;;;5054304;28;20045;-62
2024/02/09 10:10:46;;;;;;;16.15;3.97;;;;;14.60;95988.00;;;;5054044;28;20091;-62
2024/02/09 10:13:13;;;;;;;8.27;3.28;;;;;14.70;95990.00;;;;5054202;28;20119;-61
2024/02/09 10:15:46;;;;;;;16.13;4.20;;;;;14.70;95987.00;;;;5053588;28;20037;-62
2024/02/09 10:18:13;;;;;;;9.18;4.00;;;;;14.70;95972.00;;;;5053055;28;20491;-62
2024/02/09 10:20:40;;;;;;;8.57;3.42;;;;;14.80;95987.00;;;;5052798;28;20040;-62
2024/02/09 10:23:07;;;;;;;11.85;3.78;;;;;14.80;95984.00;;;;5053936;28;20072;-62
2024/02/09 10:25:34;;;;;;;11.73;3.58;;;;;14.80;95982.00;;;;5052059;28;20051;-62
2024/02/09 10:28:01;;;;;;;7.70;3.55;;;;;14.90;95989.00;;;;5054166;28;20402;-62
2024/02/09 10:30:29;;;;;;;12.57;3.47;;;;;15.00;95992.00;;;;5053957;28;20490;-62
2024/02/09 10:32:56;;;;;;;13.93;3.85;;;;;15.20;95991.00;;;;5053983;28;20055;-62
2024/02/09 10:35:23;;;;;;;8.90;3.45;;;;;15.30;95987.00;;;;5052442;28;20044;-62
2024/02/09 10:37:50;;;;;;;6.55;2.92;;;;;15.20;95993.00;;;;5053044;28;20055;-62
2024/02/09 10:40:18;;;;;;;9.60;3.40;;;;;15.20;96008.00;;;;5053726;28;20051;-62
2024/02/09 10:42:45;;;;;;;12.10;3.63;;;;;15.10;95993.00;;;;5053635;28;20053;-62
2024/02/09 10:45:12;;;;;;;12.07;3.60;;;;;15.10;95992.00;;;;5053257;28;20513;-62
2024/02/09 10:47:54;;;;;;;15.05;3.80;;;;;15.10;95999.00;;;;5052546;28;20049;-61
2024/02/09 10:50:21;;;;;;;12.70;4.10;;;;;15.00;95995.00;;;;5053588;28;20067;-60
2024/02/09 10:52:50;;;;;;;8.88;3.90;;;;;14.80;95997.00;;;;5052476;28;20049;-60
2024/02/09 10:55:28;;;;;;;10.25;3.28;;;;;14.70;96006.00;;;;5052931;28;20045;-61
2024/02/09 10:57:55;;;;;;;8.73;3.33;;;;;14.60;95990.00;;;;5053684;28;20486;-60
2024/02/09 11:00:22;;;;;;;12.10;3.03;;;;;14.60;95995.00;;;;5053868;28;20128;-60
2024/02/09 11:02:49;;;;;;;13.60;3.53;;;;;14.50;95990.00;;;;5054198;28;20437;-60
2024/02/09 11:05:19;;;;;;;9.35;3.63;;;;;14.60;95991.00;;;;5054243;28;20044;-61
2024/02/09 11:07:49;;;;;;;10.18;3.75;;;;;14.60;95987.00;;;;5053777;28;20122;-60
2024/02/09 11:10:16;;;;;;;12.02;3.75;;;;;14.60;95985.00;;;;5053149;28;20102;-60
2024/02/09 11:12:44;;;;;;;12.45;4.05;;;;;14.60;95984.00;;;;5051765;28;20147;-61
2024/02/09 11:15:14;;;;;;;11.57;3.75;;;;;14.60;95975.00;;;;5052403;28;20048;-61
2024/02/09 11:17:48;;;;;;;15.00;3.30;;;;;14.60;95976.00;;;;5052269;28;20119;-61
2024/02/09 11:20:14;;;;;;;9.80;3.13;;;;;14.50;95976.00;;;;5052899;28;20053;-61
2024/02/09 11:22:47;;;;;;;10.02;3.08;;;;;14.60;95982.00;;;;5053039;28;20374;-62
2024/02/09 11:25:19;;;;;;;12.20;4.15;;;;;14.50;95979.00;;;;5052876;28;20051;-60
2024/02/09 11:27:47;;;;;;;7.13;3.10;;;;;14.50;95976.00;;;;5052731;28;20037;-61
2024/02/09 11:30:14;;;;;;;8.02;3.05;;;;;14.40;95977.00;;;;5052785;28;20045;-61
2024/02/09 11:32:45;;;;;;;12.85;3.58;;;;;14.40;95977.00;;;;5052712;28;20120;-62
2024/02/09 11:35:13;;;;;;;9.55;3.55;;;;;14.50;95977.00;;;;5052235;28;20037;-61
2024/02/09 11:37:50;;;;;;;18.15;3.67;;;;;14.50;95971.00;;;;5053383;28;20110;-62
2024/02/09 11:40:17;;;;;;;8.55;3.35;;;;;14.50;95959.00;;;;5037094;28;20092;-62
2024/02/09 11:42:44;;;;;;;7.30;3.60;;;;;14.50;95957.00;;;;5054270;28;20506;-62
2024/02/09 11:45:11;;;;;;;10.15;3.08;;;;;14.50;95958.00;;;;5035921;28;20051;-62
2024/02/09 11:47:41;;;;;;;8.63;3.10;;;;;14.60;95962.00;;;;5053981;28;20037;-62
2024/02/09 11:50:31;;;;;;;9.70;3.55;;;;;14.60;95950.00;;;;5053171;28;20131;-62
2024/02/09 11:53:05;;;;;;;11.43;4.80;;;;;14.50;95945.00;;;;5051872;28;20505;-62
2024/02/09 11:55:42;;;;;;;11.68;6.13;;;;;14.60;95948.00;;;;5051898;28;20073;-61
2024/02/09 11:58:12;;;;;;;7.18;4.25;;;;;14.60;95951.00;;;;5053111;28;20083;-62
2024/02/09 12:00:40;;;;;;;10.85;3.47;;;;;14.60;95942.00;;;;5051924;28;20047;-62
2024/02/09 12:03:09;;;;;;;10.23;3.00;;;;;14.60;95941.00;;;;5051322;28;20072;-64
2024/02/09 12:05:43;;;;;;;9.00;4.03;;;;;14.60;95936.00;;;;5051949;28;20512;-64
2024/02/09 12:08:10;;;;;;;8.38;3.35;;;;;14.50;95943.00;;;;5052264;28;20060;-63
2024/02/09 12:10:36;;;;;;;8.40;2.92;;;;;14.50;95933.00;;;;5052336;28;20159;-63
2024/02/09 12:13:05;;;;;;;8.45;4.13;;;;;14.50;95944.00;;;;5052182;28;20037;-64
2024/02/09 12:15:31;;;;;;;7.05;3.20;;;;;14.50;95931.00;;;;5051638;28;20083;-63
2024/02/09 12:18:01;;;;;;;5.95;2.83;;;;;14.50;95935.00;;;;5052011;28;20075;-63
2024/02/09 12:20:28;;;;;;;10.25;3.10;;;;;14.50;95933.00;;;;5051056;28;20041;-62
2024/02/09 12:22:57;;;;;;;8.50;3.60;;;;;14.50;95926.00;;;;5052034;28;20124;-62
2024/02/09 12:25:24;;;;;;;8.77;3.85;;;;;14.60;95928.00;;;;5051561;28;20045;-62
2024/02/09 12:28:00;;;;;;;7.43;3.10;;;;;14.70;95918.00;;;;5051849;28;20041;-61
2024/02/09 12:30:27;;;;;;;11.20;3.10;;;;;14.70;95926.00;;;;5055537;28;20045;-63
2024/02/09 12:32:56;;;;;;;9.60;2.80;;;;;14.70;95924.00;;;;5056069;28;20045;-62
2024/02/09 12:35:28;;;;;;;11.38;2.92;;;;;14.80;95927.00;;;;5055536;28;20410;-62
2024/02/09 12:38:01;;;;;;;8.25;3.53;;;;;14.70;95926.00;;;;5056152;28;20041;-62
2024/02/09 12:40:27;;;;;;;5.10;3.15;;;;;14.60;95932.00;;;;5055818;28;20641;-62
2024/02/09 12:42:54;;;;;;;8.68;3.22;;;;;14.50;95927.00;;;;5054503;28;20056;-62
2024/02/09 12:45:26;;;;;;;5.47;3.13;;;;;14.50;95929.00;;;;5055389;28;20119;-62
2024/02/09 12:47:53;;;;;;;10.68;3.10;;;;;14.40;95933.00;;;;5055864;28;20045;-62
2024/02/09 12:50:20;;;;;;;11.55;3.63;;;;;14.40;95928.00;;;;5055748;28;20041;-62
2024/02/09 12:52:49;;;;;;;11.95;2.90;;;;;14.40;95921.00;;;;5055841;28;20049;-62
2024/02/09 12:55:19;;;;;;;8.75;3.50;;;;;14.40;95918.00;;;;5055132;28;20124;-62
2024/02/09 12:57:48;;;;;;;8.93;3.08;;;;;14.40;95928.00;;;;5055560;28;20044;-62
2024/02/09 13:00:14;;;;;;;10.75;3.08;;;;;14.40;95918.00;;;;5055585;28;20045;-62
2024/02/09 13:02:42;;;;;;;12.38;4.10;;;;;14.50;95917.00;;;;5055888;28;20139;-62
2024/02/09 13:05:09;;;;;;;20.02;5.93;;;;;14.50;95917.00;;;;5055104;28;20041;-62
2024/02/09 13:07:36;;;;;;;11.48;3.92;;;;;14.60;95915.00;;;;5055511;28;20045;-62
2024/02/09 13:10:03;;;;;;;11.70;3.38;;;;;14.60;95912.00;;;;5055445;28;20123;-62
2024/02/09 13:12:37;;;;;;;9.52;2.70;;;;;14.60;95910.00;;;;5055308;28;20522;-62
2024/02/09 13:15:06;;;;;;;7.60;2.83;;;;;14.60;95913.00;;;;5055206;28;20383;-62
2024/02/09 13:17:35;;;;;;;12.25;3.10;;;;;14.60;95917.00;;;;5055305;28;20059;-62
2024/02/09 13:20:06;;;;;;;10.00;3.40;;;;;14.60;95914.00;;;;5055288;28;20048;-62
2024/02/09 13:22:33;;;;;;;9.35;2.97;;;;;14.60;95914.00;;;;5055153;28;20124;-62
2024/02/09 13:24:59;;;;;;;13.27;3.58;;;;;14.60;95921.00;;;;5054677;28;20047;-62
2024/02/09 13:27:29;;;;;;;12.30;3.60;;;;;14.60;95924.00;;;;5055053;28;20060;-62
2024/02/09 13:29:57;;;;;;;9.50;3.63;;;;;14.50;95909.00;;;;5055128;28;20052;-61
2024/02/09 13:32:26;;;;;;;11.02;3.00;;;;;14.50;95917.00;;;;5055042;28;20136;-62
2024/02/09 13:34:54;;;;;;;9.18;3.17;;;;;14.40;95913.00;;;;5054583;28;20037;-61
2024/02/09 13:37:21;;;;;;;8.25;3.60;;;;;14.40;95915.00;;;;5054869;28;20045;-60
2024/02/09 13:39:48;;;;;;;8.77;3.30;;;;;14.30;95916.00;;;;5055062;28;20052;-62
2024/02/09 13:42:15;;;;;;;9.23;3.67;;;;;14.30;95909.00;;;;5054188;28;20073;-62
2024/02/09 13:44:42;;;;;;;9.95;3.55;;;;;14.30;95913.00;;;;5053049;28;20051;-62
2024/02/09 13:47:08;;;;;;;9.18;3.80;;;;;14.30;95916.00;;;;5054786;28;20116;-62
2024/02/09 13:49:35;;;;;;;12.90;3.92;;;;;14.30;95910.00;;;;5054751;28;20120;-62
2024/02/09 13:52:03;;;;;;;8.88;3.42;;;;;14.30;95909.00;;;;5054627;28;20409;-61
2024/02/09 13:54:31;;;;;;;9.05;3.70;;;;;14.30;95912.00;;;;5052867;28;20045;-62
2024/02/09 13:56:57;;;;;;;11.52;3.95;;;;;14.30;95902.00;;;;5054703;28;20490;-62
2024/02/09 13:59:27;;;;;;;8.68;3.47;;;;;14.30;95895.00;;;;5054549;28;20249;-62
2024/02/09 14:01:54;;;;;;;16.17;4.22;;;;;14.30;95902.00;;;;5054444;28;20422;-62
2024/02/09 14:04:21;;;;;;;8.05;4.00;;;;;14.40;95895.00;;;;5054250;28;20052;-61
2024/02/09 14:06:48;;;;;;;13.75;4.32;;;;;14.40;95887.00;;;;5054359;28;20040;-62